sensor_id;sensor_type;location;lat;lon;timestamp;P1;durP1;ratioP1;P2;durP2;ratioP2
18818;SDS011;9537;45.594;9.294;2023-12-20T00:00:51;41.17;;;27.10;;
18818;SDS011;9537;45.594;9.294;2023-12-20T00:01:52;43.27;;;25.73;;
18818;SDS011;9537;45.594;9.294;2023-12-20T00:02:53;38.37;;;26.60;;
18818;SDS011;9537;45.594;9.294;2023-12-20T00:03:55;38.90;;;25.67;;
18818;SDS011;9537;45.594;9.294;2023-12-20T00:04:57;45.73;;;26.77;;
18818;SDS011;9537;45.594;9.294;2023-12-20T00:05:58;41.73;;;26.87;;
18818;SDS011;9537;45.594;9.294;2023-12-20T00:07:00;41.63;;;26.07;;
18818;SDS011;9537;45.594;9.294;2023-12-20T00:08:01;39.43;;;25.47;;
18818;SDS011;9537;45.594;9.294;2023-12-20T00:09:05;37.47;;;24.47;;
18818;SDS011;9537;45.594;9.294;2023-12-20T00:10:06;38.70;;;25.90;;
18818;SDS011;9537;45.594;9.294;2023-12-20T00:11:08;47.57;;;25.40;;
18818;SDS011;9537;45.594;9.294;2023-12-20T00:12:09;38.30;;;25.00;;
18818;SDS011;9537;45.594;9.294;2023-12-20T00:13:10;41.77;;;26.60;;
18818;SDS011;9537;45.594;9.294;2023-12-20T00:14:12;41.77;;;25.67;;
18818;SDS011;9537;45.594;9.294;2023-12-20T00:15:13;38.43;;;25.33;;
18818;SDS011;9537;45.594;9.294;2023-12-20T00:16:14;40.40;;;25.60;;
18818;SDS011;9537;45.594;9.294;2023-12-20T00:17:15;37.50;;;23.93;;
18818;SDS011;9537;45.594;9.294;2023-12-20T00:18:17;34.97;;;24.27;;
18818;SDS011;9537;45.594;9.294;2023-12-20T00:19:19;35.37;;;24.80;;
18818;SDS011;9537;45.594;9.294;2023-12-20T00:20:21;40.10;;;25.20;;
18818;SDS011;9537;45.594;9.294;2023-12-20T00:21:21;38.33;;;25.10;;
18818;SDS011;9537;45.594;9.294;2023-12-20T00:22:24;36.07;;;25.13;;
18818;SDS011;9537;45.594;9.294;2023-12-20T00:23:24;46.10;;;27.10;;
18818;SDS011;9537;45.594;9.294;2023-12-20T00:24:26;42.97;;;26.37;;
18818;SDS011;9537;45.594;9.294;2023-12-20T00:25:27;39.20;;;25.47;;
18818;SDS011;9537;45.594;9.294;2023-12-20T00:26:29;39.83;;;25.93;;
18818;SDS011;9537;45.594;9.294;2023-12-20T00:27:29;40.63;;;23.93;;
18818;SDS011;9537;45.594;9.294;2023-12-20T00:28:31;38.63;;;23.77;;
18818;SDS011;9537;45.594;9.294;2023-12-20T00:29:32;36.47;;;24.63;;
18818;SDS011;9537;45.594;9.294;2023-12-20T00:30:34;37.17;;;23.87;;
18818;SDS011;9537;45.594;9.294;2023-12-20T00:31:35;39.37;;;24.53;;
18818;SDS011;9537;45.594;9.294;2023-12-20T00:32:36;36.20;;;23.63;;
18818;SDS011;9537;45.594;9.294;2023-12-20T00:33:37;40.77;;;24.73;;
18818;SDS011;9537;45.594;9.294;2023-12-20T00:34:41;37.77;;;23.40;;
18818;SDS011;9537;45.594;9.294;2023-12-20T00:35:42;39.50;;;25.63;;
18818;SDS011;9537;45.594;9.294;2023-12-20T00:36:43;42.13;;;27.83;;
18818;SDS011;9537;45.594;9.294;2023-12-20T00:37:45;36.07;;;22.77;;
18818;SDS011;9537;45.594;9.294;2023-12-20T00:38:45;34.00;;;21.80;;
18818;SDS011;9537;45.594;9.294;2023-12-20T00:39:47;37.67;;;22.70;;
18818;SDS011;9537;45.594;9.294;2023-12-20T00:40:48;32.57;;;21.67;;
18818;SDS011;9537;45.594;9.294;2023-12-20T00:41:49;34.60;;;23.50;;
18818;SDS011;9537;45.594;9.294;2023-12-20T00:42:51;31.47;;;21.53;;
18818;SDS011;9537;45.594;9.294;2023-12-20T00:43:52;41.50;;;23.80;;
18818;SDS011;9537;45.594;9.294;2023-12-20T00:44:53;37.27;;;23.77;;
18818;SDS011;9537;45.594;9.294;2023-12-20T00:45:54;34.73;;;22.10;;
18818;SDS011;9537;45.594;9.294;2023-12-20T00:46:55;33.37;;;22.70;;
18818;SDS011;9537;45.594;9.294;2023-12-20T00:47:57;39.03;;;23.70;;
18818;SDS011;9537;45.594;9.294;2023-12-20T00:48:59;31.57;;;21.53;;
18818;SDS011;9537;45.594;9.294;2023-12-20T00:50:02;32.97;;;23.00;;
18818;SDS011;9537;45.594;9.294;2023-12-20T00:51:03;35.63;;;22.57;;
18818;SDS011;9537;45.594;9.294;2023-12-20T00:52:05;36.67;;;23.57;;
18818;SDS011;9537;45.594;9.294;2023-12-20T00:53:06;30.40;;;21.90;;
18818;SDS011;9537;45.594;9.294;2023-12-20T00:54:08;33.50;;;22.40;;
18818;SDS011;9537;45.594;9.294;2023-12-20T00:55:09;32.93;;;21.17;;
18818;SDS011;9537;45.594;9.294;2023-12-20T00:56:11;31.53;;;21.80;;
18818;SDS011;9537;45.594;9.294;2023-12-20T00:57:11;32.10;;;22.00;;
18818;SDS011;9537;45.594;9.294;2023-12-20T00:58:13;33.20;;;21.30;;
18818;SDS011;9537;45.594;9.294;2023-12-20T00:59:16;32.97;;;23.10;;
18818;SDS011;9537;45.594;9.294;2023-12-20T01:00:18;32.93;;;22.60;;
18818;SDS011;9537;45.594;9.294;2023-12-20T01:01:19;35.93;;;23.13;;
18818;SDS011;9537;45.594;9.294;2023-12-20T01:02:22;38.23;;;24.03;;
18818;SDS011;9537;45.594;9.294;2023-12-20T01:03:23;35.67;;;22.60;;
18818;SDS011;9537;45.594;9.294;2023-12-20T01:04:24;38.17;;;23.50;;
18818;SDS011;9537;45.594;9.294;2023-12-20T01:05:27;32.03;;;21.63;;
18818;SDS011;9537;45.594;9.294;2023-12-20T01:06:28;36.33;;;22.13;;
18818;SDS011;9537;45.594;9.294;2023-12-20T01:07:30;34.30;;;21.23;;
18818;SDS011;9537;45.594;9.294;2023-12-20T01:08:31;35.60;;;23.57;;
18818;SDS011;9537;45.594;9.294;2023-12-20T01:09:34;30.23;;;20.47;;
18818;SDS011;9537;45.594;9.294;2023-12-20T01:10:35;35.63;;;21.40;;
18818;SDS011;9537;45.594;9.294;2023-12-20T01:11:36;35.00;;;23.57;;
18818;SDS011;9537;45.594;9.294;2023-12-20T01:12:37;31.27;;;21.97;;
18818;SDS011;9537;45.594;9.294;2023-12-20T01:13:38;32.80;;;22.70;;
18818;SDS011;9537;45.594;9.294;2023-12-20T01:14:40;34.00;;;21.17;;
18818;SDS011;9537;45.594;9.294;2023-12-20T01:15:41;37.53;;;23.97;;
18818;SDS011;9537;45.594;9.294;2023-12-20T01:16:43;31.77;;;20.33;;
18818;SDS011;9537;45.594;9.294;2023-12-20T01:17:43;34.80;;;21.43;;
18818;SDS011;9537;45.594;9.294;2023-12-20T01:18:45;36.13;;;25.57;;
18818;SDS011;9537;45.594;9.294;2023-12-20T01:19:46;30.83;;;20.67;;
18818;SDS011;9537;45.594;9.294;2023-12-20T01:20:48;37.83;;;20.83;;
18818;SDS011;9537;45.594;9.294;2023-12-20T01:21:50;33.87;;;21.63;;
18818;SDS011;9537;45.594;9.294;2023-12-20T01:22:50;29.50;;;20.67;;
18818;SDS011;9537;45.594;9.294;2023-12-20T01:23:52;29.77;;;20.17;;
18818;SDS011;9537;45.594;9.294;2023-12-20T01:24:53;28.23;;;19.03;;
18818;SDS011;9537;45.594;9.294;2023-12-20T01:25:55;34.00;;;20.93;;
18818;SDS011;9537;45.594;9.294;2023-12-20T01:26:56;32.37;;;20.40;;
18818;SDS011;9537;45.594;9.294;2023-12-20T01:27:58;29.70;;;19.30;;
18818;SDS011;9537;45.594;9.294;2023-12-20T01:28:59;31.67;;;20.17;;
18818;SDS011;9537;45.594;9.294;2023-12-20T01:30:01;33.07;;;21.37;;
18818;SDS011;9537;45.594;9.294;2023-12-20T01:31:02;34.07;;;21.20;;
18818;SDS011;9537;45.594;9.294;2023-12-20T01:32:04;33.07;;;20.60;;
18818;SDS011;9537;45.594;9.294;2023-12-20T01:33:05;32.70;;;18.90;;
18818;SDS011;9537;45.594;9.294;2023-12-20T01:34:07;32.63;;;19.87;;
18818;SDS011;9537;45.594;9.294;2023-12-20T01:35:08;29.57;;;20.00;;
18818;SDS011;9537;45.594;9.294;2023-12-20T01:36:11;33.87;;;20.50;;
18818;SDS011;9537;45.594;9.294;2023-12-20T01:37:12;30.83;;;20.07;;
18818;SDS011;9537;45.594;9.294;2023-12-20T01:38:13;32.13;;;20.13;;
18818;SDS011;9537;45.594;9.294;2023-12-20T01:39:14;29.57;;;19.30;;
18818;SDS011;9537;45.594;9.294;2023-12-20T01:40:16;28.97;;;18.23;;
18818;SDS011;9537;45.594;9.294;2023-12-20T01:41:17;30.40;;;18.87;;
18818;SDS011;9537;45.594;9.294;2023-12-20T01:42:18;29.80;;;17.83;;
18818;SDS011;9537;45.594;9.294;2023-12-20T01:43:19;29.73;;;19.27;;
18818;SDS011;9537;45.594;9.294;2023-12-20T01:44:20;31.23;;;19.43;;
18818;SDS011;9537;45.594;9.294;2023-12-20T01:45:21;30.93;;;18.63;;
18818;SDS011;9537;45.594;9.294;2023-12-20T01:46:22;33.87;;;20.77;;
18818;SDS011;9537;45.594;9.294;2023-12-20T01:47:24;30.47;;;19.23;;
18818;SDS011;9537;45.594;9.294;2023-12-20T01:48:27;27.60;;;19.10;;
18818;SDS011;9537;45.594;9.294;2023-12-20T01:49:29;28.33;;;18.40;;
18818;SDS011;9537;45.594;9.294;2023-12-20T01:50:31;36.47;;;19.33;;
18818;SDS011;9537;45.594;9.294;2023-12-20T01:51:34;33.80;;;20.00;;
18818;SDS011;9537;45.594;9.294;2023-12-20T01:52:36;29.37;;;18.47;;
18818;SDS011;9537;45.594;9.294;2023-12-20T01:53:38;27.63;;;18.30;;
18818;SDS011;9537;45.594;9.294;2023-12-20T01:54:41;29.23;;;18.20;;
18818;SDS011;9537;45.594;9.294;2023-12-20T01:55:44;28.60;;;18.50;;
18818;SDS011;9537;45.594;9.294;2023-12-20T01:56:45;32.30;;;19.90;;
18818;SDS011;9537;45.594;9.294;2023-12-20T01:57:47;29.97;;;18.87;;
18818;SDS011;9537;45.594;9.294;2023-12-20T01:58:48;30.53;;;19.40;;
18818;SDS011;9537;45.594;9.294;2023-12-20T01:59:50;28.67;;;19.67;;
18818;SDS011;9537;45.594;9.294;2023-12-20T02:00:50;30.17;;;19.00;;
18818;SDS011;9537;45.594;9.294;2023-12-20T02:01:53;29.33;;;18.27;;
18818;SDS011;9537;45.594;9.294;2023-12-20T02:02:54;29.40;;;18.47;;
18818;SDS011;9537;45.594;9.294;2023-12-20T02:03:56;31.97;;;19.80;;
18818;SDS011;9537;45.594;9.294;2023-12-20T02:04:57;29.33;;;18.57;;
18818;SDS011;9537;45.594;9.294;2023-12-20T02:05:57;28.93;;;18.17;;
18818;SDS011;9537;45.594;9.294;2023-12-20T02:07:01;29.73;;;19.43;;
18818;SDS011;9537;45.594;9.294;2023-12-20T02:08:03;27.73;;;17.70;;
18818;SDS011;9537;45.594;9.294;2023-12-20T02:09:05;27.57;;;17.77;;
18818;SDS011;9537;45.594;9.294;2023-12-20T02:10:07;32.43;;;18.33;;
18818;SDS011;9537;45.594;9.294;2023-12-20T02:11:08;29.20;;;17.70;;
18818;SDS011;9537;45.594;9.294;2023-12-20T02:12:11;26.67;;;18.60;;
18818;SDS011;9537;45.594;9.294;2023-12-20T02:13:12;32.80;;;19.23;;
18818;SDS011;9537;45.594;9.294;2023-12-20T02:14:13;30.17;;;19.57;;
18818;SDS011;9537;45.594;9.294;2023-12-20T02:15:15;28.60;;;18.63;;
18818;SDS011;9537;45.594;9.294;2023-12-20T02:16:15;28.40;;;17.90;;
18818;SDS011;9537;45.594;9.294;2023-12-20T02:17:17;30.77;;;18.23;;
18818;SDS011;9537;45.594;9.294;2023-12-20T02:18:19;25.50;;;16.90;;
18818;SDS011;9537;45.594;9.294;2023-12-20T02:19:20;28.87;;;16.13;;
18818;SDS011;9537;45.594;9.294;2023-12-20T02:20:21;25.60;;;16.97;;
18818;SDS011;9537;45.594;9.294;2023-12-20T02:21:25;30.90;;;16.60;;
18818;SDS011;9537;45.594;9.294;2023-12-20T02:22:32;25.10;;;15.93;;
18818;SDS011;9537;45.594;9.294;2023-12-20T02:23:34;30.97;;;17.17;;
18818;SDS011;9537;45.594;9.294;2023-12-20T02:24:34;29.90;;;18.07;;
18818;SDS011;9537;45.594;9.294;2023-12-20T02:25:36;31.40;;;18.50;;
18818;SDS011;9537;45.594;9.294;2023-12-20T02:26:37;31.07;;;18.43;;
18818;SDS011;9537;45.594;9.294;2023-12-20T02:27:39;24.57;;;16.70;;
18818;SDS011;9537;45.594;9.294;2023-12-20T02:28:40;30.27;;;16.87;;
18818;SDS011;9537;45.594;9.294;2023-12-20T02:29:42;22.83;;;14.63;;
18818;SDS011;9537;45.594;9.294;2023-12-20T02:30:43;23.03;;;15.20;;
18818;SDS011;9537;45.594;9.294;2023-12-20T02:31:45;26.90;;;17.27;;
18818;SDS011;9537;45.594;9.294;2023-12-20T02:32:46;26.43;;;16.77;;
18818;SDS011;9537;45.594;9.294;2023-12-20T02:33:48;27.50;;;17.17;;
18818;SDS011;9537;45.594;9.294;2023-12-20T02:34:49;26.47;;;16.97;;
18818;SDS011;9537;45.594;9.294;2023-12-20T02:35:51;29.50;;;16.90;;
18818;SDS011;9537;45.594;9.294;2023-12-20T02:36:54;26.40;;;16.53;;
18818;SDS011;9537;45.594;9.294;2023-12-20T02:37:56;23.00;;;16.47;;
18818;SDS011;9537;45.594;9.294;2023-12-20T02:38:56;24.23;;;16.03;;
18818;SDS011;9537;45.594;9.294;2023-12-20T02:39:58;26.63;;;16.37;;
18818;SDS011;9537;45.594;9.294;2023-12-20T02:40:59;22.90;;;15.67;;
18818;SDS011;9537;45.594;9.294;2023-12-20T02:42:00;23.43;;;16.63;;
18818;SDS011;9537;45.594;9.294;2023-12-20T02:43:01;29.13;;;16.23;;
18818;SDS011;9537;45.594;9.294;2023-12-20T02:44:03;25.83;;;16.03;;
18818;SDS011;9537;45.594;9.294;2023-12-20T02:45:04;24.43;;;16.07;;
18818;SDS011;9537;45.594;9.294;2023-12-20T02:46:07;31.03;;;16.23;;
18818;SDS011;9537;45.594;9.294;2023-12-20T02:47:08;25.03;;;16.13;;
18818;SDS011;9537;45.594;9.294;2023-12-20T02:48:10;23.90;;;16.60;;
18818;SDS011;9537;45.594;9.294;2023-12-20T02:49:10;23.03;;;16.13;;
18818;SDS011;9537;45.594;9.294;2023-12-20T02:50:11;27.67;;;18.07;;
18818;SDS011;9537;45.594;9.294;2023-12-20T02:51:13;23.30;;;16.47;;
18818;SDS011;9537;45.594;9.294;2023-12-20T02:52:15;27.80;;;16.93;;
18818;SDS011;9537;45.594;9.294;2023-12-20T02:53:17;25.83;;;15.70;;
18818;SDS011;9537;45.594;9.294;2023-12-20T02:54:18;25.40;;;16.47;;
18818;SDS011;9537;45.594;9.294;2023-12-20T02:55:19;22.70;;;15.13;;
18818;SDS011;9537;45.594;9.294;2023-12-20T02:56:20;23.63;;;16.40;;
18818;SDS011;9537;45.594;9.294;2023-12-20T02:57:21;25.27;;;15.97;;
18818;SDS011;9537;45.594;9.294;2023-12-20T02:58:22;25.87;;;15.50;;
18818;SDS011;9537;45.594;9.294;2023-12-20T02:59:23;27.67;;;16.23;;
18818;SDS011;9537;45.594;9.294;2023-12-20T03:00:24;24.07;;;15.63;;
18818;SDS011;9537;45.594;9.294;2023-12-20T03:01:26;23.10;;;15.30;;
18818;SDS011;9537;45.594;9.294;2023-12-20T03:02:26;23.60;;;16.10;;
18818;SDS011;9537;45.594;9.294;2023-12-20T03:03:27;25.70;;;16.73;;
18818;SDS011;9537;45.594;9.294;2023-12-20T03:04:29;24.63;;;15.10;;
18818;SDS011;9537;45.594;9.294;2023-12-20T03:05:30;23.33;;;14.53;;
18818;SDS011;9537;45.594;9.294;2023-12-20T03:06:30;27.20;;;16.97;;
18818;SDS011;9537;45.594;9.294;2023-12-20T03:07:33;27.50;;;14.83;;
18818;SDS011;9537;45.594;9.294;2023-12-20T03:08:34;26.13;;;15.90;;
18818;SDS011;9537;45.594;9.294;2023-12-20T03:09:36;26.40;;;17.40;;
18818;SDS011;9537;45.594;9.294;2023-12-20T03:10:36;25.00;;;15.83;;
18818;SDS011;9537;45.594;9.294;2023-12-20T03:11:38;28.37;;;15.63;;
18818;SDS011;9537;45.594;9.294;2023-12-20T03:12:39;26.87;;;15.80;;
18818;SDS011;9537;45.594;9.294;2023-12-20T03:13:41;24.70;;;16.13;;
18818;SDS011;9537;45.594;9.294;2023-12-20T03:14:41;24.80;;;15.73;;
18818;SDS011;9537;45.594;9.294;2023-12-20T03:15:45;25.13;;;16.03;;
18818;SDS011;9537;45.594;9.294;2023-12-20T03:16:46;25.70;;;15.70;;
18818;SDS011;9537;45.594;9.294;2023-12-20T03:17:47;30.03;;;17.10;;
18818;SDS011;9537;45.594;9.294;2023-12-20T03:18:49;21.83;;;14.53;;
18818;SDS011;9537;45.594;9.294;2023-12-20T03:19:50;24.70;;;15.07;;
18818;SDS011;9537;45.594;9.294;2023-12-20T03:20:52;30.67;;;17.53;;
18818;SDS011;9537;45.594;9.294;2023-12-20T03:21:52;21.90;;;15.43;;
18818;SDS011;9537;45.594;9.294;2023-12-20T03:22:56;25.43;;;16.47;;
18818;SDS011;9537;45.594;9.294;2023-12-20T03:23:57;30.03;;;15.23;;
18818;SDS011;9537;45.594;9.294;2023-12-20T03:24:59;22.40;;;15.03;;
18818;SDS011;9537;45.594;9.294;2023-12-20T03:26:00;21.30;;;15.07;;
18818;SDS011;9537;45.594;9.294;2023-12-20T03:27:01;24.87;;;16.10;;
18818;SDS011;9537;45.594;9.294;2023-12-20T03:28:03;22.27;;;15.83;;
18818;SDS011;9537;45.594;9.294;2023-12-20T03:29:05;24.57;;;16.63;;
18818;SDS011;9537;45.594;9.294;2023-12-20T03:30:06;23.87;;;15.27;;
18818;SDS011;9537;45.594;9.294;2023-12-20T03:31:09;24.47;;;14.83;;
18818;SDS011;9537;45.594;9.294;2023-12-20T03:32:10;23.30;;;16.27;;
18818;SDS011;9537;45.594;9.294;2023-12-20T03:33:10;23.70;;;15.50;;
18818;SDS011;9537;45.594;9.294;2023-12-20T03:34:12;25.40;;;15.70;;
18818;SDS011;9537;45.594;9.294;2023-12-20T03:35:13;19.83;;;15.43;;
18818;SDS011;9537;45.594;9.294;2023-12-20T03:36:15;25.00;;;16.10;;
18818;SDS011;9537;45.594;9.294;2023-12-20T03:37:15;24.03;;;15.23;;
18818;SDS011;9537;45.594;9.294;2023-12-20T03:38:19;23.97;;;15.77;;
18818;SDS011;9537;45.594;9.294;2023-12-20T03:39:19;23.17;;;15.90;;
18818;SDS011;9537;45.594;9.294;2023-12-20T03:40:20;29.50;;;15.73;;
18818;SDS011;9537;45.594;9.294;2023-12-20T03:41:22;22.47;;;15.77;;
18818;SDS011;9537;45.594;9.294;2023-12-20T03:42:23;28.60;;;17.37;;
18818;SDS011;9537;45.594;9.294;2023-12-20T03:43:24;23.67;;;15.83;;
18818;SDS011;9537;45.594;9.294;2023-12-20T03:44:25;25.37;;;16.93;;
18818;SDS011;9537;45.594;9.294;2023-12-20T03:45:27;21.83;;;15.33;;
18818;SDS011;9537;45.594;9.294;2023-12-20T03:46:27;25.67;;;15.87;;
18818;SDS011;9537;45.594;9.294;2023-12-20T03:47:29;23.80;;;16.03;;
18818;SDS011;9537;45.594;9.294;2023-12-20T03:48:30;27.07;;;15.53;;
18818;SDS011;9537;45.594;9.294;2023-12-20T03:49:31;24.60;;;15.90;;
18818;SDS011;9537;45.594;9.294;2023-12-20T03:50:33;21.93;;;14.63;;
18818;SDS011;9537;45.594;9.294;2023-12-20T03:51:34;18.57;;;14.20;;
18818;SDS011;9537;45.594;9.294;2023-12-20T03:52:36;25.17;;;15.50;;
18818;SDS011;9537;45.594;9.294;2023-12-20T03:53:38;22.17;;;14.90;;
18818;SDS011;9537;45.594;9.294;2023-12-20T03:54:40;23.23;;;15.87;;
18818;SDS011;9537;45.594;9.294;2023-12-20T03:55:42;25.00;;;15.40;;
18818;SDS011;9537;45.594;9.294;2023-12-20T03:56:44;26.17;;;15.97;;
18818;SDS011;9537;45.594;9.294;2023-12-20T03:57:44;21.00;;;15.73;;
18818;SDS011;9537;45.594;9.294;2023-12-20T03:58:46;24.70;;;16.83;;
18818;SDS011;9537;45.594;9.294;2023-12-20T03:59:47;25.30;;;17.03;;
18818;SDS011;9537;45.594;9.294;2023-12-20T04:00:49;24.73;;;15.17;;
18818;SDS011;9537;45.594;9.294;2023-12-20T04:01:50;28.20;;;16.13;;
18818;SDS011;9537;45.594;9.294;2023-12-20T04:02:51;21.90;;;14.43;;
18818;SDS011;9537;45.594;9.294;2023-12-20T04:03:52;21.07;;;14.00;;
18818;SDS011;9537;45.594;9.294;2023-12-20T04:04:54;23.90;;;15.63;;
18818;SDS011;9537;45.594;9.294;2023-12-20T04:05:55;25.00;;;15.37;;
18818;SDS011;9537;45.594;9.294;2023-12-20T04:06:55;24.67;;;15.67;;
18818;SDS011;9537;45.594;9.294;2023-12-20T04:07:57;21.30;;;14.47;;
18818;SDS011;9537;45.594;9.294;2023-12-20T04:09:01;22.90;;;15.73;;
18818;SDS011;9537;45.594;9.294;2023-12-20T04:10:01;24.70;;;14.87;;
18818;SDS011;9537;45.594;9.294;2023-12-20T04:11:04;21.63;;;14.77;;
18818;SDS011;9537;45.594;9.294;2023-12-20T04:12:05;27.47;;;16.07;;
18818;SDS011;9537;45.594;9.294;2023-12-20T04:13:07;22.53;;;14.33;;
18818;SDS011;9537;45.594;9.294;2023-12-20T04:14:08;21.13;;;14.23;;
18818;SDS011;9537;45.594;9.294;2023-12-20T04:15:10;24.37;;;14.80;;
18818;SDS011;9537;45.594;9.294;2023-12-20T04:16:12;21.97;;;14.53;;
18818;SDS011;9537;45.594;9.294;2023-12-20T04:17:14;23.10;;;15.50;;
18818;SDS011;9537;45.594;9.294;2023-12-20T04:18:16;23.80;;;14.23;;
18818;SDS011;9537;45.594;9.294;2023-12-20T04:19:16;22.97;;;15.03;;
18818;SDS011;9537;45.594;9.294;2023-12-20T04:20:18;24.00;;;14.23;;
18818;SDS011;9537;45.594;9.294;2023-12-20T04:21:19;24.70;;;14.77;;
18818;SDS011;9537;45.594;9.294;2023-12-20T04:22:21;21.77;;;13.60;;
18818;SDS011;9537;45.594;9.294;2023-12-20T04:23:22;22.97;;;15.03;;
18818;SDS011;9537;45.594;9.294;2023-12-20T04:24:25;22.33;;;15.00;;
18818;SDS011;9537;45.594;9.294;2023-12-20T04:25:25;29.33;;;15.07;;
18818;SDS011;9537;45.594;9.294;2023-12-20T04:26:27;23.23;;;15.03;;
18818;SDS011;9537;45.594;9.294;2023-12-20T04:27:29;23.87;;;14.53;;
18818;SDS011;9537;45.594;9.294;2023-12-20T04:28:30;23.20;;;14.27;;
18818;SDS011;9537;45.594;9.294;2023-12-20T04:29:31;25.50;;;15.27;;
18818;SDS011;9537;45.594;9.294;2023-12-20T04:30:32;24.33;;;15.10;;
18818;SDS011;9537;45.594;9.294;2023-12-20T04:31:34;25.43;;;15.20;;
18818;SDS011;9537;45.594;9.294;2023-12-20T04:32:35;25.00;;;15.67;;
18818;SDS011;9537;45.594;9.294;2023-12-20T04:33:37;25.50;;;15.53;;
18818;SDS011;9537;45.594;9.294;2023-12-20T04:34:37;24.67;;;16.03;;
18818;SDS011;9537;45.594;9.294;2023-12-20T04:35:39;24.57;;;15.40;;
18818;SDS011;9537;45.594;9.294;2023-12-20T04:36:41;22.73;;;14.03;;
18818;SDS011;9537;45.594;9.294;2023-12-20T04:37:42;27.80;;;16.10;;
18818;SDS011;9537;45.594;9.294;2023-12-20T04:38:43;22.07;;;14.37;;
18818;SDS011;9537;45.594;9.294;2023-12-20T04:39:46;21.93;;;14.00;;
18818;SDS011;9537;45.594;9.294;2023-12-20T04:40:47;23.07;;;13.40;;
18818;SDS011;9537;45.594;9.294;2023-12-20T04:41:49;22.87;;;14.87;;
18818;SDS011;9537;45.594;9.294;2023-12-20T04:42:50;23.73;;;14.70;;
18818;SDS011;9537;45.594;9.294;2023-12-20T04:43:52;24.90;;;15.43;;
18818;SDS011;9537;45.594;9.294;2023-12-20T04:44:52;22.03;;;14.67;;
18818;SDS011;9537;45.594;9.294;2023-12-20T04:45:54;22.57;;;13.67;;
18818;SDS011;9537;45.594;9.294;2023-12-20T04:46:55;23.37;;;13.77;;
18818;SDS011;9537;45.594;9.294;2023-12-20T04:47:57;22.73;;;14.53;;
18818;SDS011;9537;45.594;9.294;2023-12-20T04:48:58;21.37;;;14.70;;
18818;SDS011;9537;45.594;9.294;2023-12-20T04:49:59;20.13;;;13.53;;
18818;SDS011;9537;45.594;9.294;2023-12-20T04:51:00;23.60;;;14.47;;
18818;SDS011;9537;45.594;9.294;2023-12-20T04:52:02;26.07;;;14.50;;
18818;SDS011;9537;45.594;9.294;2023-12-20T04:53:04;20.93;;;14.30;;
18818;SDS011;9537;45.594;9.294;2023-12-20T04:54:04;22.27;;;14.03;;
18818;SDS011;9537;45.594;9.294;2023-12-20T04:55:08;28.13;;;15.73;;
18818;SDS011;9537;45.594;9.294;2023-12-20T04:56:09;23.23;;;15.10;;
18818;SDS011;9537;45.594;9.294;2023-12-20T04:57:10;22.40;;;14.33;;
18818;SDS011;9537;45.594;9.294;2023-12-20T04:58:11;24.87;;;14.93;;
18818;SDS011;9537;45.594;9.294;2023-12-20T04:59:13;21.70;;;14.13;;
18818;SDS011;9537;45.594;9.294;2023-12-20T05:00:14;24.37;;;15.10;;
18818;SDS011;9537;45.594;9.294;2023-12-20T05:01:16;24.90;;;15.07;;
18818;SDS011;9537;45.594;9.294;2023-12-20T05:02:17;23.90;;;15.73;;
18818;SDS011;9537;45.594;9.294;2023-12-20T05:03:18;26.97;;;16.10;;
18818;SDS011;9537;45.594;9.294;2023-12-20T05:04:19;21.80;;;14.87;;
18818;SDS011;9537;45.594;9.294;2023-12-20T05:05:21;22.03;;;13.67;;
18818;SDS011;9537;45.594;9.294;2023-12-20T05:06:22;24.50;;;14.17;;
18818;SDS011;9537;45.594;9.294;2023-12-20T05:07:24;20.63;;;14.17;;
18818;SDS011;9537;45.594;9.294;2023-12-20T05:08:25;21.03;;;14.33;;
18818;SDS011;9537;45.594;9.294;2023-12-20T05:09:27;19.23;;;14.00;;
18818;SDS011;9537;45.594;9.294;2023-12-20T05:10:29;21.33;;;14.23;;
18818;SDS011;9537;45.594;9.294;2023-12-20T05:11:30;22.27;;;14.97;;
18818;SDS011;9537;45.594;9.294;2023-12-20T05:12:31;19.17;;;14.70;;
18818;SDS011;9537;45.594;9.294;2023-12-20T05:13:33;22.17;;;14.97;;
18818;SDS011;9537;45.594;9.294;2023-12-20T05:14:34;25.83;;;14.13;;
18818;SDS011;9537;45.594;9.294;2023-12-20T05:15:36;22.63;;;14.53;;
18818;SDS011;9537;45.594;9.294;2023-12-20T05:16:36;22.93;;;15.03;;
18818;SDS011;9537;45.594;9.294;2023-12-20T05:17:37;24.30;;;13.67;;
18818;SDS011;9537;45.594;9.294;2023-12-20T05:18:39;23.23;;;14.47;;
18818;SDS011;9537;45.594;9.294;2023-12-20T05:19:40;19.07;;;13.17;;
18818;SDS011;9537;45.594;9.294;2023-12-20T05:20:41;26.17;;;14.73;;
18818;SDS011;9537;45.594;9.294;2023-12-20T05:21:42;19.87;;;14.67;;
18818;SDS011;9537;45.594;9.294;2023-12-20T05:22:44;24.43;;;14.37;;
18818;SDS011;9537;45.594;9.294;2023-12-20T05:23:45;17.53;;;13.23;;
18818;SDS011;9537;45.594;9.294;2023-12-20T05:24:47;23.83;;;14.50;;
18818;SDS011;9537;45.594;9.294;2023-12-20T05:25:49;23.07;;;14.63;;
18818;SDS011;9537;45.594;9.294;2023-12-20T05:26:50;21.53;;;14.70;;
18818;SDS011;9537;45.594;9.294;2023-12-20T05:27:51;21.87;;;14.77;;
18818;SDS011;9537;45.594;9.294;2023-12-20T05:28:53;21.50;;;14.10;;
18818;SDS011;9537;45.594;9.294;2023-12-20T05:29:54;25.00;;;14.93;;
18818;SDS011;9537;45.594;9.294;2023-12-20T05:30:57;25.33;;;13.90;;
18818;SDS011;9537;45.594;9.294;2023-12-20T05:31:58;24.13;;;14.70;;
18818;SDS011;9537;45.594;9.294;2023-12-20T05:33:00;22.83;;;13.53;;
18818;SDS011;9537;45.594;9.294;2023-12-20T05:34:01;18.30;;;12.87;;
18818;SDS011;9537;45.594;9.294;2023-12-20T05:35:02;19.37;;;14.03;;
18818;SDS011;9537;45.594;9.294;2023-12-20T05:36:04;19.57;;;13.20;;
18818;SDS011;9537;45.594;9.294;2023-12-20T05:37:05;21.03;;;13.87;;
18818;SDS011;9537;45.594;9.294;2023-12-20T05:38:07;20.63;;;13.80;;
18818;SDS011;9537;45.594;9.294;2023-12-20T05:39:08;23.33;;;12.87;;
18818;SDS011;9537;45.594;9.294;2023-12-20T05:40:10;21.17;;;13.93;;
18818;SDS011;9537;45.594;9.294;2023-12-20T05:41:12;18.30;;;13.33;;
18818;SDS011;9537;45.594;9.294;2023-12-20T05:42:14;23.40;;;13.47;;
18818;SDS011;9537;45.594;9.294;2023-12-20T05:43:15;20.80;;;14.20;;
18818;SDS011;9537;45.594;9.294;2023-12-20T05:44:17;20.80;;;13.50;;
18818;SDS011;9537;45.594;9.294;2023-12-20T05:45:17;20.63;;;14.27;;
18818;SDS011;9537;45.594;9.294;2023-12-20T05:46:19;22.70;;;14.43;;
18818;SDS011;9537;45.594;9.294;2023-12-20T05:47:21;18.30;;;13.63;;
18818;SDS011;9537;45.594;9.294;2023-12-20T05:48:23;21.60;;;14.23;;
18818;SDS011;9537;45.594;9.294;2023-12-20T05:49:23;19.43;;;12.57;;
18818;SDS011;9537;45.594;9.294;2023-12-20T05:50:25;22.20;;;14.13;;
18818;SDS011;9537;45.594;9.294;2023-12-20T05:51:26;20.00;;;13.63;;
18818;SDS011;9537;45.594;9.294;2023-12-20T05:52:27;21.67;;;14.47;;
18818;SDS011;9537;45.594;9.294;2023-12-20T05:53:28;21.37;;;13.70;;
18818;SDS011;9537;45.594;9.294;2023-12-20T05:54:30;20.87;;;13.97;;
18818;SDS011;9537;45.594;9.294;2023-12-20T05:55:31;19.87;;;14.13;;
18818;SDS011;9537;45.594;9.294;2023-12-20T05:56:34;20.03;;;13.40;;
18818;SDS011;9537;45.594;9.294;2023-12-20T05:57:35;19.27;;;13.53;;
18818;SDS011;9537;45.594;9.294;2023-12-20T05:58:35;22.13;;;14.13;;
18818;SDS011;9537;45.594;9.294;2023-12-20T05:59:37;21.10;;;13.63;;
18818;SDS011;9537;45.594;9.294;2023-12-20T06:00:38;20.30;;;13.40;;
18818;SDS011;9537;45.594;9.294;2023-12-20T06:01:40;21.80;;;14.37;;
18818;SDS011;9537;45.594;9.294;2023-12-20T06:02:41;21.97;;;13.97;;
18818;SDS011;9537;45.594;9.294;2023-12-20T06:03:42;21.67;;;13.67;;
18818;SDS011;9537;45.594;9.294;2023-12-20T06:04:44;20.03;;;13.77;;